sensor_id;sensor_type;location;lat;lon;timestamp;P1;durP1;ratioP1;P2;durP2;ratioP2
28311;SDS011;15572;48.810;9.148;2023-07-22T00:00:43;2.97;;;2.40;;
28311;SDS011;15572;48.810;9.148;2023-07-22T00:05:39;3.57;;;2.47;;
28311;SDS011;15572;48.810;9.148;2023-07-22T00:10:39;3.13;;;2.37;;
28311;SDS011;15572;48.810;9.148;2023-07-22T00:15:36;4.17;;;2.87;;
28311;SDS011;15572;48.810;9.148;2023-07-22T00:20:34;3.80;;;2.70;;
28311;SDS011;15572;48.810;9.148;2023-07-22T00:25:31;4.33;;;3.03;;
28311;SDS011;15572;48.810;9.148;2023-07-22T00:30:27;4.63;;;2.83;;
28311;SDS011;15572;48.810;9.148;2023-07-22T00:35:24;4.27;;;2.97;;
28311;SDS011;15572;48.810;9.148;2023-07-22T00:40:22;3.87;;;2.77;;
28311;SDS011;15572;48.810;9.148;2023-07-22T00:45:19;3.57;;;2.60;;
28311;SDS011;15572;48.810;9.148;2023-07-22T00:50:15;3.60;;;2.60;;
28311;SDS011;15572;48.810;9.148;2023-07-22T00:55:12;4.93;;;2.57;;
28311;SDS011;15572;48.810;9.148;2023-07-22T01:00:11;4.73;;;2.77;;
28311;SDS011;15572;48.810;9.148;2023-07-22T01:05:11;3.43;;;2.50;;
28311;SDS011;15572;48.810;9.148;2023-07-22T01:10:08;4.00;;;2.80;;
28311;SDS011;15572;48.810;9.148;2023-07-22T01:15:06;4.00;;;2.77;;
28311;SDS011;15572;48.810;9.148;2023-07-22T01:20:05;4.67;;;2.70;;
28311;SDS011;15572;48.810;9.148;2023-07-22T01:25:06;4.33;;;2.63;;
28311;SDS011;15572;48.810;9.148;2023-07-22T01:30:03;4.00;;;2.87;;
28311;SDS011;15572;48.810;9.148;2023-07-22T01:35:01;3.77;;;2.77;;
28311;SDS011;15572;48.810;9.148;2023-07-22T01:39:58;4.20;;;3.03;;
28311;SDS011;15572;48.810;9.148;2023-07-22T01:44:56;5.57;;;2.60;;
28311;SDS011;15572;48.810;9.148;2023-07-22T01:49:52;3.63;;;3.07;;
28311;SDS011;15572;48.810;9.148;2023-07-22T01:54:49;4.03;;;2.93;;
28311;SDS011;15572;48.810;9.148;2023-07-22T01:59:45;3.30;;;3.00;;
28311;SDS011;15572;48.810;9.148;2023-07-22T02:04:44;3.23;;;2.93;;
28311;SDS011;15572;48.810;9.148;2023-07-22T02:09:40;3.07;;;2.77;;
28311;SDS011;15572;48.810;9.148;2023-07-22T02:14:37;4.00;;;2.83;;
28311;SDS011;15572;48.810;9.148;2023-07-22T02:19:33;4.27;;;3.20;;
28311;SDS011;15572;48.810;9.148;2023-07-22T02:24:31;4.93;;;3.30;;
28311;SDS011;15572;48.810;9.148;2023-07-22T02:29:28;5.50;;;3.00;;
28311;SDS011;15572;48.810;9.148;2023-07-22T02:34:26;4.83;;;2.70;;
28311;SDS011;15572;48.810;9.148;2023-07-22T02:39:22;3.83;;;2.90;;
28311;SDS011;15572;48.810;9.148;2023-07-22T02:44:20;4.67;;;3.03;;
28311;SDS011;15572;48.810;9.148;2023-07-22T02:49:17;6.07;;;3.10;;
28311;SDS011;15572;48.810;9.148;2023-07-22T02:54:13;5.13;;;3.10;;
28311;SDS011;15572;48.810;9.148;2023-07-22T02:59:10;3.87;;;3.10;;
28311;SDS011;15572;48.810;9.148;2023-07-22T03:04:07;4.27;;;3.03;;
28311;SDS011;15572;48.810;9.148;2023-07-22T03:09:04;4.47;;;3.20;;
28311;SDS011;15572;48.810;9.148;2023-07-22T03:14:01;4.17;;;3.00;;
28311;SDS011;15572;48.810;9.148;2023-07-22T03:18:58;4.40;;;3.00;;
28311;SDS011;15572;48.810;9.148;2023-07-22T03:23:56;3.60;;;2.57;;
28311;SDS011;15572;48.810;9.148;2023-07-22T03:28:53;5.50;;;2.90;;
28311;SDS011;15572;48.810;9.148;2023-07-22T03:33:49;4.30;;;2.87;;
28311;SDS011;15572;48.810;9.148;2023-07-22T03:38:46;4.23;;;3.20;;
28311;SDS011;15572;48.810;9.148;2023-07-22T03:43:44;4.87;;;3.00;;
28311;SDS011;15572;48.810;9.148;2023-07-22T03:48:40;5.90;;;3.23;;
28311;SDS011;15572;48.810;9.148;2023-07-22T03:53:37;6.07;;;3.10;;
28311;SDS011;15572;48.810;9.148;2023-07-22T03:58:33;4.10;;;3.17;;
28311;SDS011;15572;48.810;9.148;2023-07-22T04:03:31;4.47;;;3.07;;
28311;SDS011;15572;48.810;9.148;2023-07-22T04:08:28;4.20;;;3.23;;
28311;SDS011;15572;48.810;9.148;2023-07-22T04:13:25;4.73;;;3.57;;
28311;SDS011;15572;48.810;9.148;2023-07-22T04:18:22;4.10;;;3.40;;
28311;SDS011;15572;48.810;9.148;2023-07-22T04:23:20;5.83;;;3.20;;
28311;SDS011;15572;48.810;9.148;2023-07-22T04:28:16;6.27;;;5.37;;
28311;SDS011;15572;48.810;9.148;2023-07-22T04:33:13;5.90;;;3.50;;
28311;SDS011;15572;48.810;9.148;2023-07-22T04:38:09;5.30;;;4.10;;
28311;SDS011;15572;48.810;9.148;2023-07-22T04:43:07;4.87;;;3.63;;
28311;SDS011;15572;48.810;9.148;2023-07-22T04:48:04;4.73;;;3.70;;
28311;SDS011;15572;48.810;9.148;2023-07-22T04:53:00;3.80;;;3.23;;
28311;SDS011;15572;48.810;9.148;2023-07-22T04:57:57;4.07;;;3.20;;
28311;SDS011;15572;48.810;9.148;2023-07-22T05:02:55;4.67;;;3.30;;
28311;SDS011;15572;48.810;9.148;2023-07-22T05:07:51;8.00;;;3.63;;
28311;SDS011;15572;48.810;9.148;2023-07-22T05:12:48;4.87;;;3.40;;
28311;SDS011;15572;48.810;9.148;2023-07-22T05:17:44;4.90;;;3.33;;
28311;SDS011;15572;48.810;9.148;2023-07-22T05:22:42;4.40;;;3.07;;
28311;SDS011;15572;48.810;9.148;2023-07-22T05:27:39;3.47;;;2.70;;
28311;SDS011;15572;48.810;9.148;2023-07-22T05:32:36;5.00;;;3.10;;
28311;SDS011;15572;48.810;9.148;2023-07-22T05:37:32;4.67;;;2.90;;
28311;SDS011;15572;48.810;9.148;2023-07-22T05:42:30;6.00;;;3.03;;
28311;SDS011;15572;48.810;9.148;2023-07-22T05:47:27;6.57;;;2.50;;
28311;SDS011;15572;48.810;9.148;2023-07-22T05:52:23;3.87;;;2.97;;
28311;SDS011;15572;48.810;9.148;2023-07-22T05:57:20;3.83;;;2.80;;
28311;SDS011;15572;48.810;9.148;2023-07-22T06:02:18;5.33;;;3.17;;
28311;SDS011;15572;48.810;9.148;2023-07-22T06:07:14;4.80;;;3.37;;
28311;SDS011;15572;48.810;9.148;2023-07-22T06:12:11;5.17;;;3.43;;
28311;SDS011;15572;48.810;9.148;2023-07-22T06:17:08;4.60;;;2.90;;
28311;SDS011;15572;48.810;9.148;2023-07-22T06:22:06;3.90;;;3.23;;
28311;SDS011;15572;48.810;9.148;2023-07-22T06:27:02;4.90;;;3.20;;
28311;SDS011;15572;48.810;9.148;2023-07-22T06:31:59;4.53;;;3.10;;
28311;SDS011;15572;48.810;9.148;2023-07-22T06:36:56;3.53;;;3.20;;
28311;SDS011;15572;48.810;9.148;2023-07-22T06:41:53;4.77;;;3.27;;
28311;SDS011;15572;48.810;9.148;2023-07-22T06:46:50;5.10;;;3.13;;
28311;SDS011;15572;48.810;9.148;2023-07-22T06:51:46;5.10;;;3.33;;
28311;SDS011;15572;48.810;9.148;2023-07-22T06:56:43;4.60;;;3.03;;
28311;SDS011;15572;48.810;9.148;2023-07-22T07:01:41;6.47;;;3.20;;
28311;SDS011;15572;48.810;9.148;2023-07-22T07:06:37;7.07;;;3.43;;
28311;SDS011;15572;48.810;9.148;2023-07-22T07:11:34;5.67;;;3.53;;
28311;SDS011;15572;48.810;9.148;2023-07-22T07:16:31;5.77;;;3.23;;
28311;SDS011;15572;48.810;9.148;2023-07-22T07:21:30;4.53;;;2.87;;
28311;SDS011;15572;48.810;9.148;2023-07-22T07:26:26;4.33;;;3.10;;
28311;SDS011;15572;48.810;9.148;2023-07-22T07:31:23;4.87;;;2.90;;
28311;SDS011;15572;48.810;9.148;2023-07-22T07:36:20;10.40;;;2.80;;
28311;SDS011;15572;48.810;9.148;2023-07-22T07:41:17;3.90;;;2.70;;
28311;SDS011;15572;48.810;9.148;2023-07-22T07:46:18;5.80;;;2.97;;
28311;SDS011;15572;48.810;9.148;2023-07-22T07:51:17;4.05;;;3.03;;
28311;SDS011;15572;48.810;9.148;2023-07-22T07:56:15;4.43;;;2.90;;
28311;SDS011;15572;48.810;9.148;2023-07-22T08:01:14;3.75;;;2.50;;
28311;SDS011;15572;48.810;9.148;2023-07-22T08:06:11;3.47;;;2.53;;
28311;SDS011;15572;48.810;9.148;2023-07-22T08:11:09;3.97;;;2.72;;
28311;SDS011;15572;48.810;9.148;2023-07-22T08:16:08;6.32;;;2.97;;
28311;SDS011;15572;48.810;9.148;2023-07-22T08:21:07;3.38;;;2.50;;
28311;SDS011;15572;48.810;9.148;2023-07-22T08:26:04;2.03;;;1.67;;
28311;SDS011;15572;48.810;9.148;2023-07-22T08:31:01;2.63;;;1.50;;
28311;SDS011;15572;48.810;9.148;2023-07-22T08:35:58;2.95;;;1.90;;
28311;SDS011;15572;48.810;9.148;2023-07-22T08:40:56;1.70;;;1.60;;
28311;SDS011;15572;48.810;9.148;2023-07-22T08:45:53;3.05;;;2.00;;
28311;SDS011;15572;48.810;9.148;2023-07-22T08:50:52;3.45;;;2.13;;
28311;SDS011;15572;48.810;9.148;2023-07-22T08:55:49;2.90;;;2.33;;
28311;SDS011;15572;48.810;9.148;2023-07-22T09:00:48;3.17;;;2.10;;
28311;SDS011;15572;48.810;9.148;2023-07-22T09:05:45;1.73;;;1.45;;
28311;SDS011;15572;48.810;9.148;2023-07-22T09:10:42;4.10;;;1.90;;
28311;SDS011;15572;48.810;9.148;2023-07-22T09:15:39;2.17;;;1.98;;
28311;SDS011;15572;48.810;9.148;2023-07-22T09:20:37;3.33;;;2.05;;
28311;SDS011;15572;48.810;9.148;2023-07-22T09:25:34;3.38;;;2.05;;
28311;SDS011;15572;48.810;9.148;2023-07-22T09:30:31;2.67;;;2.28;;
28311;SDS011;15572;48.810;9.148;2023-07-22T09:35:29;3.38;;;1.95;;
28311;SDS011;15572;48.810;9.148;2023-07-22T09:40:28;2.50;;;2.05;;
28311;SDS011;15572;48.810;9.148;2023-07-22T09:45:25;2.00;;;1.80;;
28311;SDS011;15572;48.810;9.148;2023-07-22T09:50:22;3.55;;;2.00;;
28311;SDS011;15572;48.810;9.148;2023-07-22T09:55:20;2.33;;;1.58;;
28311;SDS011;15572;48.810;9.148;2023-07-22T10:00:19;1.73;;;1.60;;
28311;SDS011;15572;48.810;9.148;2023-07-22T10:05:17;1.70;;;1.38;;
28311;SDS011;15572;48.810;9.148;2023-07-22T10:10:16;1.45;;;1.35;;
28311;SDS011;15572;48.810;9.148;2023-07-22T10:15:15;1.75;;;1.30;;
28311;SDS011;15572;48.810;9.148;2023-07-22T10:20:13;1.60;;;1.50;;
28311;SDS011;15572;48.810;9.148;2023-07-22T10:25:11;3.30;;;2.00;;
28311;SDS011;15572;48.810;9.148;2023-07-22T10:30:09;2.47;;;1.92;;
28311;SDS011;15572;48.810;9.148;2023-07-22T10:35:09;1.77;;;1.65;;
28311;SDS011;15572;48.810;9.148;2023-07-22T10:40:18;1.70;;;1.60;;
28311;SDS011;15572;48.810;9.148;2023-07-22T10:45:25;1.60;;;1.27;;
28311;SDS011;15572;48.810;9.148;2023-07-22T10:50:23;3.15;;;1.45;;
28311;SDS011;15572;48.810;9.148;2023-07-22T11:01:20;5.05;;;1.90;;
28311;SDS011;15572;48.810;9.148;2023-07-22T11:06:19;2.38;;;1.98;;
28311;SDS011;15572;48.810;9.148;2023-07-22T11:11:20;3.60;;;1.73;;
28311;SDS011;15572;48.810;9.148;2023-07-22T11:16:16;5.32;;;1.85;;
28311;SDS011;15572;48.810;9.148;2023-07-22T11:21:13;3.20;;;1.80;;
28311;SDS011;15572;48.810;9.148;2023-07-22T11:26:10;2.22;;;1.73;;
28311;SDS011;15572;48.810;9.148;2023-07-22T11:31:08;3.10;;;1.90;;
28311;SDS011;15572;48.810;9.148;2023-07-22T11:36:04;2.28;;;1.70;;
28311;SDS011;15572;48.810;9.148;2023-07-22T11:41:01;2.35;;;1.73;;
28311;SDS011;15572;48.810;9.148;2023-07-22T11:45:57;2.17;;;1.63;;
28311;SDS011;15572;48.810;9.148;2023-07-22T11:50:59;3.05;;;1.75;;
28311;SDS011;15572;48.810;9.148;2023-07-22T11:55:57;2.22;;;1.65;;
28311;SDS011;15572;48.810;9.148;2023-07-22T12:01:01;2.72;;;1.83;;
28311;SDS011;15572;48.810;9.148;2023-07-22T12:06:01;2.10;;;1.90;;
28311;SDS011;15572;48.810;9.148;2023-07-22T12:10:59;3.45;;;1.73;;
28311;SDS011;15572;48.810;9.148;2023-07-22T12:15:59;1.52;;;1.42;;
28311;SDS011;15572;48.810;9.148;2023-07-22T12:20:56;4.50;;;2.00;;
28311;SDS011;15572;48.810;9.148;2023-07-22T12:25:54;2.05;;;1.85;;
28311;SDS011;15572;48.810;9.148;2023-07-22T12:30:51;2.58;;;1.90;;
28311;SDS011;15572;48.810;9.148;2023-07-22T12:35:47;2.35;;;1.55;;
28311;SDS011;15572;48.810;9.148;2023-07-22T12:40:44;2.58;;;2.00;;
28311;SDS011;15572;48.810;9.148;2023-07-22T12:45:41;3.45;;;1.90;;
28311;SDS011;15572;48.810;9.148;2023-07-22T12:50:38;3.33;;;2.05;;
28311;SDS011;15572;48.810;9.148;2023-07-22T12:55:34;1.77;;;1.50;;
28311;SDS011;15572;48.810;9.148;2023-07-22T13:00:31;2.35;;;1.98;;
28311;SDS011;15572;48.810;9.148;2023-07-22T13:05:29;3.28;;;1.77;;
28311;SDS011;15572;48.810;9.148;2023-07-22T13:10:25;3.00;;;2.00;;
28311;SDS011;15572;48.810;9.148;2023-07-22T13:15:23;2.90;;;2.20;;
28311;SDS011;15572;48.810;9.148;2023-07-22T13:20:20;4.97;;;2.60;;
28311;SDS011;15572;48.810;9.148;2023-07-22T13:25:18;2.90;;;2.20;;
28311;SDS011;15572;48.810;9.148;2023-07-22T13:30:14;2.72;;;2.20;;
28311;SDS011;15572;48.810;9.148;2023-07-22T13:35:10;3.13;;;2.20;;
28311;SDS011;15572;48.810;9.148;2023-07-22T13:40:08;3.17;;;1.92;;
28311;SDS011;15572;48.810;9.148;2023-07-22T13:45:08;2.30;;;1.90;;
28311;SDS011;15572;48.810;9.148;2023-07-22T13:50:05;3.53;;;1.88;;
28311;SDS011;15572;48.810;9.148;2023-07-22T13:55:02;3.15;;;2.28;;
28311;SDS011;15572;48.810;9.148;2023-07-22T13:59:58;2.75;;;2.10;;
28311;SDS011;15572;48.810;9.148;2023-07-22T14:04:56;3.10;;;2.42;;
28311;SDS011;15572;48.810;9.148;2023-07-22T14:09:53;5.07;;;2.13;;
28311;SDS011;15572;48.810;9.148;2023-07-22T14:14:49;2.50;;;2.20;;
28311;SDS011;15572;48.810;9.148;2023-07-22T14:19:46;3.05;;;2.20;;
28311;SDS011;15572;48.810;9.148;2023-07-22T14:24:43;3.17;;;2.58;;
28311;SDS011;15572;48.810;9.148;2023-07-22T14:29:40;2.83;;;2.17;;
28311;SDS011;15572;48.810;9.148;2023-07-22T14:34:36;3.67;;;2.40;;
28311;SDS011;15572;48.810;9.148;2023-07-22T14:39:33;3.67;;;2.33;;
28311;SDS011;15572;48.810;9.148;2023-07-22T14:44:31;2.55;;;2.33;;
28311;SDS011;15572;48.810;9.148;2023-07-22T14:49:27;3.33;;;2.30;;
28311;SDS011;15572;48.810;9.148;2023-07-22T14:54:23;4.30;;;2.58;;
28311;SDS011;15572;48.810;9.148;2023-07-22T14:59:20;3.25;;;2.40;;
28311;SDS011;15572;48.810;9.148;2023-07-22T15:04:18;3.13;;;2.58;;
28311;SDS011;15572;48.810;9.148;2023-07-22T15:09:14;5.22;;;2.72;;
28311;SDS011;15572;48.810;9.148;2023-07-22T15:14:11;7.70;;;2.55;;
28311;SDS011;15572;48.810;9.148;2023-07-22T15:19:07;3.97;;;2.92;;
28311;SDS011;15572;48.810;9.148;2023-07-22T15:24:06;2.78;;;2.42;;
28311;SDS011;15572;48.810;9.148;2023-07-22T15:29:02;2.78;;;2.47;;
28311;SDS011;15572;48.810;9.148;2023-07-22T15:33:59;4.03;;;2.50;;
28311;SDS011;15572;48.810;9.148;2023-07-22T15:38:55;13.35;;;5.40;;
28311;SDS011;15572;48.810;9.148;2023-07-22T15:43:53;3.85;;;2.60;;
28311;SDS011;15572;48.810;9.148;2023-07-22T15:48:50;4.95;;;2.53;;
28311;SDS011;15572;48.810;9.148;2023-07-22T15:53:46;4.28;;;2.67;;
28311;SDS011;15572;48.810;9.148;2023-07-22T15:58:43;5.95;;;3.38;;
28311;SDS011;15572;48.810;9.148;2023-07-22T16:03:41;4.13;;;3.10;;
28311;SDS011;15572;48.810;9.148;2023-07-22T16:08:37;3.55;;;2.88;;
28311;SDS011;15572;48.810;9.148;2023-07-22T16:13:34;3.00;;;2.33;;
28311;SDS011;15572;48.810;9.148;2023-07-22T16:18:30;2.63;;;2.07;;
28311;SDS011;15572;48.810;9.148;2023-07-22T16:23:28;3.63;;;2.72;;
28311;SDS011;15572;48.810;9.148;2023-07-22T16:28:24;5.28;;;2.60;;
28311;SDS011;15572;48.810;9.148;2023-07-22T16:33:21;4.43;;;2.75;;
28311;SDS011;15572;48.810;9.148;2023-07-22T16:38:17;5.10;;;2.78;;
28311;SDS011;15572;48.810;9.148;2023-07-22T16:43:15;3.03;;;2.50;;
28311;SDS011;15572;48.810;9.148;2023-07-22T16:48:12;5.20;;;2.25;;
28311;SDS011;15572;48.810;9.148;2023-07-22T16:53:08;5.10;;;2.92;;
28311;SDS011;15572;48.810;9.148;2023-07-22T16:58:04;3.10;;;2.78;;
28311;SDS011;15572;48.810;9.148;2023-07-22T17:03:02;5.10;;;2.80;;
28311;SDS011;15572;48.810;9.148;2023-07-22T17:07:59;4.70;;;2.70;;
28311;SDS011;15572;48.810;9.148;2023-07-22T17:12:56;3.22;;;2.47;;
28311;SDS011;15572;48.810;9.148;2023-07-22T17:17:52;3.90;;;2.30;;
28311;SDS011;15572;48.810;9.148;2023-07-22T17:22:50;7.40;;;4.15;;
28311;SDS011;15572;48.810;9.148;2023-07-22T17:27:47;3.65;;;2.65;;
28311;SDS011;15572;48.810;9.148;2023-07-22T17:32:43;3.45;;;2.67;;
28311;SDS011;15572;48.810;9.148;2023-07-22T17:37:43;2.92;;;2.63;;
28311;SDS011;15572;48.810;9.148;2023-07-22T17:42:41;6.70;;;4.13;;
28311;SDS011;15572;48.810;9.148;2023-07-22T17:47:38;3.97;;;2.72;;
28311;SDS011;15572;48.810;9.148;2023-07-22T17:52:34;4.35;;;2.80;;
28311;SDS011;15572;48.810;9.148;2023-07-22T17:57:30;3.70;;;2.75;;
28311;SDS011;15572;48.810;9.148;2023-07-22T18:02:28;3.75;;;2.95;;
28311;SDS011;15572;48.810;9.148;2023-07-22T18:07:25;2.80;;;2.45;;
28311;SDS011;15572;48.810;9.148;2023-07-22T18:12:21;4.65;;;2.88;;
28311;SDS011;15572;48.810;9.148;2023-07-22T18:17:18;3.15;;;2.50;;
28311;SDS011;15572;48.810;9.148;2023-07-22T18:22:15;3.10;;;2.50;;
28311;SDS011;15572;48.810;9.148;2023-07-22T18:27:12;4.43;;;2.70;;
28311;SDS011;15572;48.810;9.148;2023-07-22T18:32:08;4.60;;;3.00;;
28311;SDS011;15572;48.810;9.148;2023-07-22T18:37:05;4.90;;;2.60;;
28311;SDS011;15572;48.810;9.148;2023-07-22T18:42:03;5.07;;;3.25;;
28311;SDS011;15572;48.810;9.148;2023-07-22T18:47:00;8.05;;;6.15;;
28311;SDS011;15572;48.810;9.148;2023-07-22T18:51:56;10.10;;;5.60;;
28311;SDS011;15572;48.810;9.148;2023-07-22T18:56:53;5.43;;;4.65;;
28311;SDS011;15572;48.810;9.148;2023-07-22T19:01:50;7.18;;;4.90;;
28311;SDS011;15572;48.810;9.148;2023-07-22T19:06:47;5.72;;;3.90;;
28311;SDS011;15572;48.810;9.148;2023-07-22T19:11:46;4.75;;;3.92;;
28311;SDS011;15572;48.810;9.148;2023-07-22T19:16:50;5.95;;;3.20;;
28311;SDS011;15572;48.810;9.148;2023-07-22T19:21:47;6.55;;;2.80;;
28311;SDS011;15572;48.810;9.148;2023-07-22T19:26:43;4.43;;;3.25;;
28311;SDS011;15572;48.810;9.148;2023-07-22T19:31:40;5.50;;;3.70;;
28311;SDS011;15572;48.810;9.148;2023-07-22T19:36:37;4.38;;;3.38;;
28311;SDS011;15572;48.810;9.148;2023-07-22T19:41:34;4.53;;;3.28;;
28311;SDS011;15572;48.810;9.148;2023-07-22T19:46:31;6.20;;;3.90;;
28311;SDS011;15572;48.810;9.148;2023-07-22T19:51:27;5.15;;;3.15;;
28311;SDS011;15572;48.810;9.148;2023-07-22T19:56:25;5.53;;;3.80;;
28311;SDS011;15572;48.810;9.148;2023-07-22T20:01:21;4.43;;;3.50;;
28311;SDS011;15572;48.810;9.148;2023-07-22T20:06:18;4.68;;;3.75;;
28311;SDS011;15572;48.810;9.148;2023-07-22T20:11:14;7.63;;;3.97;;
28311;SDS011;15572;48.810;9.148;2023-07-22T20:16:12;6.82;;;4.00;;
28311;SDS011;15572;48.810;9.148;2023-07-22T20:21:09;4.78;;;3.88;;
28311;SDS011;15572;48.810;9.148;2023-07-22T20:26:05;7.20;;;3.63;;
28311;SDS011;15572;48.810;9.148;2023-07-22T20:31:02;6.78;;;4.43;;
28311;SDS011;15572;48.810;9.148;2023-07-22T20:36:00;8.48;;;3.95;;
28311;SDS011;15572;48.810;9.148;2023-07-22T20:40:56;5.78;;;4.05;;
28311;SDS011;15572;48.810;9.148;2023-07-22T20:45:54;6.38;;;4.20;;
28311;SDS011;15572;48.810;9.148;2023-07-22T20:50:52;6.47;;;3.85;;
28311;SDS011;15572;48.810;9.148;2023-07-22T20:55:50;5.90;;;3.70;;
28311;SDS011;15572;48.810;9.148;2023-07-22T21:00:47;4.38;;;3.25;;
28311;SDS011;15572;48.810;9.148;2023-07-22T21:05:45;5.20;;;3.30;;
28311;SDS011;15572;48.810;9.148;2023-07-22T21:10:48;4.22;;;3.10;;
28311;SDS011;15572;48.810;9.148;2023-07-22T21:15:46;3.85;;;3.15;;
28311;SDS011;15572;48.810;9.148;2023-07-22T21:20:43;4.28;;;3.08;;
28311;SDS011;15572;48.810;9.148;2023-07-22T21:25:39;7.13;;;2.75;;
28311;SDS011;15572;48.810;9.148;2023-07-22T21:30:37;3.63;;;2.70;;
28311;SDS011;15572;48.810;9.148;2023-07-22T21:35:35;3.92;;;2.92;;
28311;SDS011;15572;48.810;9.148;2023-07-22T21:40:32;4.50;;;2.78;;
28311;SDS011;15572;48.810;9.148;2023-07-22T21:45:28;3.30;;;2.47;;
28311;SDS011;15572;48.810;9.148;2023-07-22T21:50:25;3.45;;;2.58;;
28311;SDS011;15572;48.810;9.148;2023-07-22T21:55:22;3.22;;;2.58;;
28311;SDS011;15572;48.810;9.148;2023-07-22T22:00:19;5.63;;;2.50;;
28311;SDS011;15572;48.810;9.148;2023-07-22T22:05:15;3.22;;;2.53;;
28311;SDS011;15572;48.810;9.148;2023-07-22T22:10:12;2.85;;;2.47;;
28311;SDS011;15572;48.810;9.148;2023-07-22T22:15:10;3.10;;;2.80;;
28311;SDS011;15572;48.810;9.148;2023-07-22T22:20:07;3.03;;;2.53;;
28311;SDS011;15572;48.810;9.148;2023-07-22T22:25:04;3.53;;;2.88;;
28311;SDS011;15572;48.810;9.148;2023-07-22T22:30:01;3.67;;;2.42;;
28311;SDS011;15572;48.810;9.148;2023-07-22T22:34:59;3.40;;;2.47;;
28311;SDS011;15572;48.810;9.148;2023-07-22T22:39:56;4.10;;;2.70;;
28311;SDS011;15572;48.810;9.148;2023-07-22T22:44:53;5.80;;;2.70;;
28311;SDS011;15572;48.810;9.148;2023-07-22T22:49:49;8.52;;;3.20;;
28311;SDS011;15572;48.810;9.148;2023-07-22T22:54:47;4.93;;;2.78;;
28311;SDS011;15572;48.810;9.148;2023-07-22T22:59:43;3.67;;;2.58;;
28311;SDS011;15572;48.810;9.148;2023-07-22T23:04:40;5.13;;;2.65;;
28311;SDS011;15572;48.810;9.148;2023-07-22T23:09:36;3.10;;;2.50;;
28311;SDS011;15572;48.810;9.148;2023-07-22T23:14:34;4.80;;;2.80;;
28311;SDS011;15572;48.810;9.148;2023-07-22T23:19:31;3.92;;;2.33;;
28311;SDS011;15572;48.810;9.148;2023-07-22T23:24:28;4.05;;;2.50;;
28311;SDS011;15572;48.810;9.148;2023-07-22T23:29:24;3.50;;;2.35;;
28311;SDS011;15572;48.810;9.148;2023-07-22T23:34:22;3.05;;;2.53;;
28311;SDS011;15572;48.810;9.148;2023-07-22T23:39:19;4.20;;;2.20;;
28311;SDS011;15572;48.810;9.148;2023-07-22T23:44:15;3.90;;;2.30;;
28311;SDS011;15572;48.810;9.148;2023-07-22T23:49:12;5.22;;;2.42;;
28311;SDS011;15572;48.810;9.148;2023-07-22T23:54:09;6.28;;;2.40;;
28311;SDS011;15572;48.810;9.148;2023-07-22T23:59:06;3.83;;;2.30;;
